createdAt,value
2019-02-19T00:00:53.876Z,4.97
2019-02-19T00:03:21.600Z,4.80
2019-02-19T00:05:51.293Z,5.33
2019-02-19T00:08:19.386Z,4.80
2019-02-19T00:10:47.041Z,5.10
2019-02-19T00:13:14.986Z,5.10
2019-02-19T00:15:42.937Z,5.10
2019-02-19T00:18:11.184Z,5.10
2019-02-19T00:20:39.146Z,5.33
2019-02-19T00:23:06.824Z,5.20
2019-02-19T00:25:34.473Z,5.00
2019-02-19T00:28:02.410Z,4.70
2019-02-19T00:30:30.718Z,5.00
2019-02-19T00:32:59.093Z,5.00
2019-02-19T00:35:27.369Z,4.67
2019-02-19T00:37:55.693Z,5.03
2019-02-19T00:40:23.345Z,4.73
2019-02-19T00:42:51.286Z,4.47
2019-02-19T00:45:19.557Z,5.30
2019-02-19T00:47:47.910Z,5.33
2019-02-19T00:50:15.568Z,4.90
2019-02-19T00:52:43.508Z,4.97
2019-02-19T00:55:11.994Z,5.13
2019-02-19T00:57:40.159Z,4.97
2019-02-19T01:00:08.815Z,5.13
2019-02-19T01:02:36.912Z,4.80
2019-02-19T01:05:05.009Z,5.10
2019-02-19T01:07:33.429Z,5.10
2019-02-19T01:10:01.377Z,4.90
2019-02-19T01:12:29.579Z,5.07
2019-02-19T01:14:57.233Z,4.50
2019-02-19T01:17:25.205Z,4.90
2019-02-19T01:19:52.868Z,4.83
2019-02-19T01:22:21.053Z,4.70
2019-02-19T01:24:49.389Z,5.00
2019-02-19T01:27:17.321Z,4.80
2019-02-19T01:29:45.312Z,4.57
2019-02-19T01:32:13.227Z,4.70
2019-02-19T01:34:40.893Z,4.80
2019-02-19T01:37:08.585Z,4.93
2019-02-19T01:39:36.829Z,4.40
2019-02-19T01:42:04.868Z,4.40
2019-02-19T01:44:33.020Z,5.17
2019-02-19T01:47:01.337Z,4.40
2019-02-19T01:49:29.698Z,4.80
2019-02-19T01:51:57.698Z,4.80
2019-02-19T01:54:25.864Z,4.90
2019-02-19T01:56:53.810Z,5.03
2019-02-19T01:59:21.798Z,4.87
2019-02-19T02:01:49.823Z,4.73
2019-02-19T02:04:17.806Z,4.60
2019-02-19T02:06:45.794Z,4.90
2019-02-19T02:09:14.111Z,4.20
2019-02-19T02:11:42.203Z,4.17
2019-02-19T02:14:09.853Z,4.43
2019-02-19T02:16:37.585Z,4.10
2019-02-19T02:19:05.235Z,4.63
2019-02-19T02:21:33.605Z,4.90
2019-02-19T02:24:01.517Z,4.83
2019-02-19T02:26:29.537Z,4.50
2019-02-19T02:28:57.496Z,4.60
2019-02-19T02:31:26.019Z,4.90
2019-02-19T02:33:53.960Z,4.90
2019-02-19T02:36:21.608Z,4.30
2019-02-19T02:38:49.275Z,4.37
2019-02-19T02:41:17.598Z,4.13
2019-02-19T02:43:45.337Z,4.60
2019-02-19T02:46:13.629Z,4.00
2019-02-19T02:48:41.558Z,3.83
2019-02-19T02:51:09.828Z,4.73
2019-02-19T02:53:38.126Z,4.50
2019-02-19T02:56:06.411Z,4.43
2019-02-19T02:58:35.010Z,4.07
2019-02-19T03:01:03.055Z,4.73
2019-02-19T03:03:31.101Z,4.40
2019-02-19T03:06:05.454Z,5.00
2019-02-19T03:08:33.661Z,4.70
2019-02-19T03:11:01.738Z,4.70
2019-02-19T03:13:29.658Z,4.73
2019-02-19T03:16:02.367Z,4.90
2019-02-19T03:18:26.917Z,4.80
2019-02-19T03:20:54.895Z,4.80
2019-02-19T03:23:22.898Z,4.63
2019-02-19T03:25:50.561Z,4.30
2019-02-19T03:28:18.629Z,4.87
2019-02-19T03:30:46.324Z,4.73
2019-02-19T03:33:14.312Z,5.30
2019-02-19T03:35:42.952Z,4.90
2019-02-19T03:38:11.122Z,6.70
2019-02-19T03:40:39.229Z,5.17
2019-02-19T03:43:08.087Z,5.10
2019-02-19T03:45:36.162Z,5.30
2019-02-19T03:48:04.170Z,5.20
2019-02-19T03:50:31.829Z,5.27
2019-02-19T03:53:00.361Z,5.43
2019-02-19T03:55:28.626Z,5.50
2019-02-19T03:57:56.592Z,5.50
2019-02-19T04:00:24.306Z,5.50
2019-02-19T04:02:52.393Z,6.50
2019-02-19T04:05:20.674Z,7.90
2019-02-19T04:07:48.653Z,9.47
2019-02-19T04:10:16.587Z,8.70
2019-02-19T04:12:44.638Z,8.87
2019-02-19T04:15:12.601Z,8.87
2019-02-19T04:17:40.577Z,10.30
2019-02-19T04:20:08.848Z,10.20
2019-02-19T04:22:36.626Z,11.23
2019-02-19T04:25:04.446Z,10.70
2019-02-19T04:27:32.393Z,12.10
2019-02-19T04:30:00.405Z,12.50
2019-02-19T04:32:28.411Z,11.97
2019-02-19T04:34:56.385Z,12.30
2019-02-19T04:37:24.347Z,13.80
2019-02-19T04:39:52.032Z,13.70
2019-02-19T04:42:19.738Z,13.97
2019-02-19T04:44:47.799Z,14.30
2019-02-19T04:47:15.593Z,14.00
2019-02-19T04:49:43.541Z,14.27
2019-02-19T04:52:11.852Z,14.50
2019-02-19T04:54:39.534Z,15.70
2019-02-19T04:57:07.195Z,13.90
2019-02-19T04:59:35.770Z,14.23
2019-02-19T05:02:03.976Z,15.20
2019-02-19T05:04:32.177Z,14.90
2019-02-19T05:07:00.214Z,14.63
2019-02-19T05:09:28.562Z,14.70
2019-02-19T05:11:56.459Z,15.77
2019-02-19T05:14:24.742Z,15.20
2019-02-19T05:16:52.760Z,15.40
2019-02-19T05:19:20.418Z,16.23
2019-02-19T05:21:48.349Z,14.87
2019-02-19T05:24:16.305Z,15.63
2019-02-19T05:26:44.230Z,15.80
2019-02-19T05:29:11.885Z,16.73
2019-02-19T05:31:39.567Z,15.80
2019-02-19T05:34:07.526Z,16.20
2019-02-19T05:36:35.214Z,16.93
2019-02-19T05:39:04.482Z,15.10
2019-02-19T05:41:32.510Z,14.40
2019-02-19T05:44:00.513Z,15.20
2019-02-19T05:46:28.873Z,14.10
2019-02-19T05:48:56.806Z,14.73
2019-02-19T05:51:24.472Z,13.80
2019-02-19T05:53:52.644Z,14.50
2019-02-19T05:56:20.317Z,13.80
2019-02-19T05:58:47.989Z,14.43
2019-02-19T06:01:16.086Z,13.93
2019-02-19T06:03:44.033Z,12.37
2019-02-19T06:06:11.992Z,12.43
2019-02-19T06:08:39.718Z,12.63
2019-02-19T06:11:07.689Z,13.27
2019-02-19T06:13:36.275Z,12.60
2019-02-19T06:16:04.839Z,12.23
2019-02-19T06:18:32.874Z,13.07
2019-02-19T06:21:00.966Z,12.40
2019-02-19T06:23:29.311Z,12.97
2019-02-19T06:25:57.317Z,14.13
2019-02-19T06:28:25.601Z,14.13
2019-02-19T06:30:53.575Z,13.57
2019-02-19T06:33:21.601Z,13.77
2019-02-19T06:35:49.522Z,15.80
2019-02-19T06:38:17.460Z,16.33
2019-02-19T06:40:45.745Z,16.60
2019-02-19T06:43:14.375Z,14.80
2019-02-19T06:45:42.382Z,15.30
2019-02-19T06:48:10.382Z,15.70
2019-02-19T06:50:38.495Z,14.73
2019-02-19T06:53:06.430Z,14.97
2019-02-19T06:55:34.467Z,14.73
2019-02-19T06:58:02.777Z,15.37
2019-02-19T07:00:31.021Z,15.47
2019-02-19T07:03:15.173Z,17.83
2019-02-19T07:05:43.391Z,18.00
2019-02-19T07:08:11.346Z,16.30
2019-02-19T07:10:39.393Z,16.60
2019-02-19T07:13:07.420Z,16.67
2019-02-19T07:15:35.492Z,16.97
2019-02-19T07:18:03.529Z,17.43
2019-02-19T07:20:31.196Z,16.80
2019-02-19T07:22:59.525Z,16.03
2019-02-19T07:25:27.949Z,18.10
2019-02-19T07:27:56.288Z,19.10
2019-02-19T07:30:24.517Z,16.87
2019-02-19T07:32:52.782Z,17.90
2019-02-19T07:35:21.375Z,18.77
2019-02-19T07:37:49.660Z,18.60
2019-02-19T07:40:17.995Z,18.70
2019-02-19T07:42:45.644Z,18.67
2019-02-19T07:45:13.440Z,18.97
2019-02-19T07:47:41.482Z,19.30
2019-02-19T07:50:09.205Z,19.00
2019-02-19T07:52:37.453Z,19.90
2019-02-19T07:55:05.234Z,19.47
2019-02-19T07:57:32.911Z,19.27
2019-02-19T08:00:00.666Z,19.37
2019-02-19T08:02:28.338Z,19.03
2019-02-19T08:04:56.001Z,20.40
2019-02-19T08:07:23.998Z,19.70
2019-02-19T08:09:51.994Z,20.40
2019-02-19T08:12:20.361Z,19.20
2019-02-19T08:14:48.289Z,19.27
2019-02-19T08:17:16.330Z,18.30
2019-02-19T08:19:44.505Z,18.67
2019-02-19T08:22:12.768Z,18.43
2019-02-19T08:24:41.152Z,18.17
2019-02-19T08:27:09.126Z,17.27
2019-02-19T08:29:37.093Z,16.63
2019-02-19T08:32:05.467Z,15.33
2019-02-19T08:34:33.394Z,15.53
2019-02-19T08:37:01.061Z,14.90
2019-02-19T08:39:28.729Z,15.60
2019-02-19T08:41:57.093Z,14.43
2019-02-19T08:44:25.217Z,15.43
2019-02-19T08:46:53.267Z,14.83
2019-02-19T08:49:21.241Z,14.90
2019-02-19T08:51:55.855Z,14.40
2019-02-19T08:54:19.093Z,13.93
2019-02-19T08:56:47.438Z,14.30
2019-02-19T08:59:15.103Z,14.37
2019-02-19T09:01:42.775Z,15.07
2019-02-19T09:04:10.740Z,13.80
2019-02-19T09:06:38.685Z,13.90
2019-02-19T09:09:06.672Z,12.83
2019-02-19T09:11:34.361Z,14.17
2019-02-19T09:14:02.697Z,14.50
2019-02-19T09:16:30.433Z,13.10
2019-02-19T09:18:58.115Z,14.00
2019-02-19T09:21:26.465Z,14.07
2019-02-19T09:23:55.069Z,14.57
2019-02-19T09:26:23.100Z,12.53
2019-02-19T09:28:51.112Z,12.80
2019-02-19T09:31:19.498Z,12.70
2019-02-19T09:33:47.770Z,12.20
2019-02-19T09:36:16.105Z,12.33
2019-02-19T09:38:44.426Z,13.17
2019-02-19T09:41:12.441Z,13.20
2019-02-19T09:43:40.777Z,12.50
2019-02-19T09:46:08.885Z,13.33
2019-02-19T09:48:36.890Z,11.23
2019-02-19T09:51:05.193Z,13.10
2019-02-19T09:53:33.241Z,12.10
2019-02-19T09:56:01.201Z,12.20
2019-02-19T09:58:28.893Z,11.00
2019-02-19T10:00:56.967Z,10.90
2019-02-19T10:03:25.105Z,11.30
2019-02-19T10:05:52.757Z,11.73
2019-02-19T10:08:20.710Z,10.70
2019-02-19T10:10:48.643Z,11.67
2019-02-19T10:13:16.702Z,12.87
2019-02-19T10:15:44.994Z,11.80
2019-02-19T10:18:13.565Z,10.07
2019-02-19T10:20:41.654Z,9.50
2019-02-19T10:23:10.049Z,9.33
2019-02-19T10:25:38.013Z,8.40
2019-02-19T10:28:05.744Z,8.50
2019-02-19T10:30:33.726Z,8.70
2019-02-19T10:33:01.772Z,8.00
2019-02-19T10:35:29.778Z,8.60
2019-02-19T10:37:57.434Z,6.80
2019-02-19T10:40:25.097Z,6.30
2019-02-19T10:42:53.065Z,5.73
2019-02-19T10:45:20.757Z,5.87
2019-02-19T10:47:49.001Z,6.67
2019-02-19T10:50:17.049Z,6.13
2019-02-19T10:52:45.161Z,5.03
2019-02-19T10:55:13.196Z,5.63
2019-02-19T10:57:41.450Z,6.33
2019-02-19T11:00:12.093Z,5.33
2019-02-19T11:02:40.309Z,4.20
2019-02-19T11:05:08.285Z,4.00
2019-02-19T11:07:36.206Z,3.83
2019-02-19T11:10:04.201Z,4.33
2019-02-19T11:12:32.400Z,3.80
2019-02-19T11:15:00.657Z,5.00
2019-02-19T11:17:28.399Z,4.43
2019-02-19T11:19:57.206Z,4.47
2019-02-19T11:22:26.000Z,4.43
2019-02-19T11:24:53.746Z,3.80
2019-02-19T11:27:21.417Z,3.73
2019-02-19T11:29:49.558Z,4.20
2019-02-19T11:32:18.054Z,4.70
2019-02-19T11:34:46.358Z,4.30
2019-02-19T11:37:14.024Z,4.30
2019-02-19T11:39:42.156Z,4.07
2019-02-19T11:42:10.493Z,3.90
2019-02-19T11:44:38.738Z,4.67
2019-02-19T11:47:06.862Z,4.20
2019-02-19T11:49:34.621Z,3.83
2019-02-19T11:52:02.281Z,4.77
2019-02-19T11:54:30.652Z,4.00
2019-02-19T11:56:59.197Z,4.40
2019-02-19T11:59:27.170Z,3.53
2019-02-19T12:01:55.493Z,3.93
2019-02-19T12:04:23.423Z,4.20
2019-02-19T12:06:51.085Z,4.40
2019-02-19T12:09:19.665Z,4.53
2019-02-19T12:11:48.052Z,4.90
2019-02-19T12:14:15.980Z,4.00
2019-02-19T12:16:43.925Z,4.63
2019-02-19T12:19:11.945Z,4.30
2019-02-19T12:21:39.636Z,4.30
2019-02-19T12:24:07.805Z,3.63
2019-02-19T12:26:35.769Z,3.20
2019-02-19T12:29:03.767Z,2.20
2019-02-19T12:31:32.415Z,3.00
2019-02-19T12:34:00.985Z,3.10
2019-02-19T12:36:28.672Z,2.70
2019-02-19T12:38:56.869Z,2.50
2019-02-19T12:41:25.428Z,2.60
2019-02-19T12:43:54.002Z,2.57
2019-02-19T12:46:22.045Z,1.90
2019-02-19T12:48:54.711Z,2.20
2019-02-19T12:51:26.240Z,2.30
2019-02-19T12:53:49.793Z,2.13
2019-02-19T12:56:17.730Z,2.00
2019-02-19T12:58:46.047Z,2.00
2019-02-19T13:01:16.007Z,2.30
2019-02-19T13:03:43.997Z,2.33
2019-02-19T13:06:12.426Z,2.10
2019-02-19T13:08:40.079Z,2.00
2019-02-19T13:11:08.089Z,2.47
2019-02-19T13:13:35.865Z,2.07
2019-02-19T13:16:04.149Z,2.60
2019-02-19T13:18:32.443Z,2.10
2019-02-19T13:21:00.774Z,2.30
2019-02-19T13:23:28.729Z,2.70
2019-02-19T13:25:56.749Z,1.93
2019-02-19T13:28:24.774Z,2.07
2019-02-19T13:30:53.068Z,2.23
2019-02-19T13:33:21.358Z,2.23
2019-02-19T13:35:50.721Z,2.23
2019-02-19T13:38:18.486Z,2.30
2019-02-19T13:40:46.457Z,2.20
2019-02-19T13:43:15.094Z,2.40
2019-02-19T13:45:43.469Z,1.83
2019-02-19T13:48:11.497Z,2.00
2019-02-19T13:50:39.744Z,2.20
2019-02-19T13:53:14.517Z,1.80
2019-02-19T13:55:45.808Z,1.90
2019-02-19T13:58:13.761Z,2.00
2019-02-19T14:00:42.738Z,2.13
2019-02-19T14:03:10.789Z,2.13
2019-02-19T14:05:39.019Z,2.00
2019-02-19T14:08:14.269Z,2.30
2019-02-19T14:10:36.357Z,2.50
2019-02-19T14:13:04.097Z,1.83
2019-02-19T14:16:00.578Z,1.93
2019-02-19T14:18:47.953Z,1.60
2019-02-19T14:21:50.469Z,2.03
2019-02-19T14:24:34.206Z,2.00
2019-02-19T14:27:27.579Z,1.83
2019-02-19T14:30:26.344Z,2.10
2019-02-19T14:33:13.401Z,2.00
2019-02-19T14:35:51.631Z,1.80
2019-02-19T14:38:51.426Z,2.30
2019-02-19T14:41:37.827Z,2.03
2019-02-19T14:44:30.806Z,2.20
2019-02-19T14:47:23.816Z,1.90
2019-02-19T14:50:16.449Z,2.00
2019-02-19T14:53:06.548Z,2.00
2019-02-19T14:55:54.693Z,2.07
2019-02-19T14:58:48.079Z,2.00
2019-02-19T15:01:47.135Z,2.07
2019-02-19T15:04:43.566Z,2.30
2019-02-19T15:07:30.617Z,2.40
2019-02-19T15:10:32.772Z,2.37
2019-02-19T15:13:05.477Z,2.10
2019-02-19T15:15:55.674Z,2.40
2019-02-19T15:18:41.079Z,2.17
2019-02-19T15:21:16.485Z,1.90
2019-02-19T15:24:03.606Z,1.70
2019-02-19T15:26:54.661Z,1.90
2019-02-19T15:29:33.831Z,1.83
2019-02-19T15:32:20.609Z,2.20
2019-02-19T15:34:55.219Z,2.17
2019-02-19T15:37:29.083Z,2.23
2019-02-19T15:40:14.924Z,2.20
2019-02-19T15:43:04.737Z,2.03
2019-02-19T15:46:07.154Z,2.30
2019-02-19T15:49:03.325Z,2.50
2019-02-19T15:51:37.137Z,2.57
2019-02-19T15:54:39.090Z,2.17
2019-02-19T15:57:16.929Z,2.37
2019-02-19T16:00:01.498Z,2.30
2019-02-19T16:02:44.518Z,2.93
2019-02-19T16:05:43.951Z,2.40
2019-02-19T16:08:22.388Z,2.00
2019-02-19T16:11:15.376Z,2.30
2019-02-19T16:13:59.328Z,2.00
2019-02-19T16:16:55.272Z,2.10
2019-02-19T16:19:28.817Z,1.90
2019-02-19T16:22:15.498Z,1.80
2019-02-19T16:25:14.346Z,2.00
2019-02-19T16:27:58.413Z,2.07
2019-02-19T16:30:45.835Z,1.97
2019-02-19T16:33:34.195Z,1.93
2019-02-19T16:36:21.321Z,2.33
2019-02-19T16:39:27.048Z,2.20
2019-02-19T16:42:02.521Z,2.33
2019-02-19T16:44:48.811Z,2.07
2019-02-19T16:47:32.277Z,2.73
2019-02-19T16:50:08.019Z,2.30
2019-02-19T16:52:55.725Z,2.80
2019-02-19T16:55:45.918Z,2.40
2019-02-19T16:58:48.685Z,2.00
2019-02-19T17:01:50.861Z,2.10
2019-02-19T17:04:25.317Z,2.10
2019-02-19T17:10:08.555Z,2.20
2019-02-19T17:12:53.333Z,2.47
2019-02-19T17:15:42.091Z,2.50
2019-02-19T17:18:47.562Z,2.00
2019-02-19T17:21:32.840Z,2.40
2019-02-19T17:24:16.295Z,2.30
2019-02-19T17:27:01.798Z,2.20
2019-02-19T17:29:45.005Z,2.80
2019-02-19T17:32:30.389Z,2.63
2019-02-19T17:35:11.128Z,2.53
2019-02-19T17:37:51.829Z,2.13
2019-02-19T17:40:34.846Z,2.70
2019-02-19T17:43:31.080Z,2.40
2019-02-19T17:46:21.478Z,2.30
2019-02-19T17:49:00.609Z,2.37
2019-02-19T17:51:53.841Z,2.03
2019-02-19T17:54:39.215Z,2.00
2019-02-19T17:57:22.060Z,2.20
2019-02-19T18:00:05.821Z,2.87
2019-02-19T18:05:44.139Z,3.40
2019-02-19T18:08:35.193Z,4.10
2019-02-19T18:11:37.177Z,3.43
2019-02-19T18:14:11.677Z,3.23
2019-02-19T18:16:48.623Z,3.40
2019-02-19T18:19:16.874Z,3.00
2019-02-19T18:21:48.648Z,3.43
2019-02-19T18:24:16.589Z,4.40
2019-02-19T18:26:44.856Z,5.50
2019-02-19T18:29:13.159Z,5.27
2019-02-19T18:31:41.329Z,3.93
2019-02-19T18:34:09.522Z,3.60
2019-02-19T18:36:37.439Z,3.87
2019-02-19T18:39:06.282Z,3.80
2019-02-19T18:41:34.254Z,3.50
2019-02-19T18:44:02.519Z,3.40
2019-02-19T18:46:30.431Z,3.57
2019-02-19T18:48:58.104Z,3.27
2019-02-19T18:51:26.021Z,2.50
2019-02-19T18:53:53.682Z,3.27
2019-02-19T18:56:21.949Z,3.00
2019-02-19T18:58:49.921Z,3.47
2019-02-19T19:01:18.408Z,3.00
2019-02-19T19:03:46.649Z,3.33
2019-02-19T19:06:15.946Z,3.00
2019-02-19T19:08:43.915Z,3.73
2019-02-19T19:11:12.194Z,2.90
2019-02-19T19:13:40.406Z,3.20
2019-02-19T19:16:08.892Z,3.00
2019-02-19T19:18:37.158Z,2.73
2019-02-19T19:21:07.834Z,2.53
2019-02-19T19:23:34.690Z,2.67
2019-02-19T19:26:02.704Z,2.90
2019-02-19T19:28:31.278Z,2.57
2019-02-19T19:30:59.225Z,2.57
2019-02-19T19:33:27.181Z,2.20
2019-02-19T19:35:55.796Z,2.90
2019-02-19T19:38:24.198Z,2.97
2019-02-19T19:40:51.934Z,2.60
2019-02-19T19:43:19.922Z,2.47
2019-02-19T19:45:48.164Z,2.83
2019-02-19T19:48:16.621Z,2.73
2019-02-19T19:50:44.555Z,2.33
2019-02-19T19:53:12.277Z,2.30
2019-02-19T19:55:40.241Z,2.73
2019-02-19T19:58:08.253Z,2.30
2019-02-19T20:00:36.288Z,2.57
2019-02-19T20:03:04.668Z,3.80
2019-02-19T20:05:33.286Z,5.50
2019-02-19T20:08:01.277Z,4.53
2019-02-19T20:10:29.639Z,3.70
2019-02-19T20:12:57.294Z,3.30
2019-02-19T20:15:25.568Z,4.13
2019-02-19T20:17:53.497Z,4.47
2019-02-19T20:20:21.712Z,4.13
2019-02-19T20:22:49.893Z,3.67
2019-02-19T20:25:18.128Z,3.00
2019-02-19T20:27:46.169Z,3.00
2019-02-19T20:30:14.110Z,2.47
2019-02-19T20:32:41.851Z,3.00
2019-02-19T20:35:09.505Z,2.70
2019-02-19T20:37:37.209Z,2.87
2019-02-19T20:40:05.010Z,2.87
2019-02-19T20:42:33.306Z,2.60
2019-02-19T20:45:00.958Z,2.83
2019-02-19T20:47:28.926Z,2.93
2019-02-19T20:49:56.575Z,2.80
2019-02-19T20:52:24.262Z,2.70
2019-02-19T20:54:52.453Z,2.90
2019-02-19T20:57:20.449Z,3.07
2019-02-19T20:59:48.914Z,2.93
2019-02-19T21:02:16.573Z,3.10
2019-02-19T21:04:44.513Z,3.87
2019-02-19T21:07:12.182Z,3.80
2019-02-19T21:09:43.684Z,3.00
2019-02-19T21:12:09.302Z,3.47
2019-02-19T21:14:37.342Z,3.00
2019-02-19T21:17:05.246Z,3.27
2019-02-19T21:19:33.783Z,2.97
2019-02-19T21:22:02.369Z,3.27
2019-02-19T21:24:30.571Z,3.43
2019-02-19T21:26:58.485Z,3.07
2019-02-19T21:29:26.416Z,3.87
2019-02-19T21:31:54.130Z,3.40
2019-02-19T21:34:21.921Z,3.67
2019-02-19T21:36:50.695Z,3.90
2019-02-19T21:39:18.458Z,3.77
2019-02-19T21:41:46.734Z,3.50
2019-02-19T21:44:14.772Z,3.70
2019-02-19T21:46:42.683Z,4.30
2019-02-19T21:49:11.165Z,3.67
2019-02-19T21:51:39.137Z,3.60
2019-02-19T21:54:07.419Z,3.73
2019-02-19T21:56:35.166Z,4.70
2019-02-19T21:59:03.081Z,4.23
2019-02-19T22:04:02.577Z,4.20
2019-02-19T22:06:30.836Z,4.70
2019-02-19T22:08:58.544Z,4.77
2019-02-19T22:11:26.781Z,4.17
2019-02-19T22:13:54.430Z,4.60
2019-02-19T22:16:22.090Z,4.77
2019-02-19T22:18:50.129Z,4.70
2019-02-19T22:21:37.224Z,5.27
2019-02-19T22:24:05.286Z,4.63
2019-02-19T22:26:33.370Z,4.57
2019-02-19T22:29:01.345Z,4.90
2019-02-19T22:31:29.456Z,4.23
2019-02-19T22:33:57.401Z,5.70
2019-02-19T22:36:25.728Z,5.80
2019-02-19T22:38:53.797Z,4.30
2019-02-19T22:41:22.050Z,4.57
2019-02-19T22:43:50.066Z,4.60
2019-02-19T22:46:18.111Z,5.60
2019-02-19T22:48:46.289Z,4.70
2019-02-19T22:51:14.309Z,4.80
2019-02-19T22:54:06.913Z,4.50
2019-02-19T22:56:40.430Z,4.53
2019-02-19T22:59:08.773Z,5.10
2019-02-19T23:01:42.084Z,4.67
2019-02-19T23:04:10.466Z,4.73
2019-02-19T23:06:38.493Z,4.43
2019-02-19T23:09:06.801Z,4.80
2019-02-19T23:11:35.073Z,5.40
2019-02-19T23:14:02.725Z,5.40
2019-02-19T23:16:30.928Z,4.60
2019-02-19T23:18:58.884Z,4.83
2019-02-19T23:21:27.279Z,5.63
2019-02-19T23:23:55.338Z,5.03
2019-02-19T23:26:23.268Z,6.10
2019-02-19T23:28:51.468Z,6.40
2019-02-19T23:31:19.402Z,5.00
2019-02-19T23:33:47.913Z,5.70
2019-02-19T23:36:29.753Z,5.37
2019-02-19T23:38:57.993Z,5.50
2019-02-19T23:41:25.999Z,4.97
2019-02-19T23:43:53.721Z,6.03
2019-02-19T23:46:21.665Z,5.20
2019-02-19T23:48:49.313Z,5.30
2019-02-19T23:51:17.640Z,4.67
2019-02-19T23:53:45.588Z,5.50
2019-02-19T23:56:13.629Z,5.47
2019-02-19T23:58:41.605Z,5.77
